Addy, WA (99101)

3:35 AM PDT on September 02, 2014 (GMT -0700)
RAWS PAL MOORE ORCHARD WA US | Change Station
CLOSE
Current Station
Personal Weather Station
Location: Chewelah, WA
Elevation: 3120 ft
Nearby Weather Stations

Elev 3120 ft 48.39 °N, 117.59 °W | Updated 40 minutes ago

Clear
Clear
46 °F
Feels Like 46 °F
N
0
Wind Variable Wind from North
Gusts 4.0 mph

Today
High -- | Low -- °F
--% Chance of Precip.
Yesterday
High -- | Low -- °F
Precip. -- in
6:10 AM 7:31 PM
Waxing Crescent, 50% visible
Pressure 29.88 in
Visibility 10.0 miles
Clouds Clear
Windchill 46 °F
Dew Point 44 °F
Humidity 91%
Rainfall 0.00 in
Snow Depth Not available.
UV 0 out of 12
Pollen 6.50 out of 12
PM2.5 Good
Flu Activity Not available.
METAR KDEW 020953Z AUTO 14003KT 10SM CLR 11/04 A2990 RMK AO2 SLP118 T01110039

More Conditions Fewer Conditions

Pressure 29.88 in
Visibility 10.0 miles
Clouds Clear
Windchill 46 °F
Dew Point 44 °F
Humidity 91%
Rainfall 0.00 in
Snow Depth Not available.
UV 0 out of 12
Pollen 6.50 out of 12
PM2.5 Good
Flu Activity Not available.
METAR KDEW 020953Z AUTO 14003KT 10SM CLR 11/04 A2990 RMK AO2 SLP118 T01110039

More Conditions Fewer Conditions

10-Day Weather Forecast

Almanac

Astronomy

Sep. 02, 2014 Rise Set
Actual Time 6:10 AM PDT 7:31 PM PDT
Civil Twilight 5:38 AM PDT 8:03 PM PDT
Nautical Twilight 4:59 AM PDT 8:42 PM PDT
Astronomical Twilight 4:17 AM PDT 9:24 PM PDT
Moon 2:33 PM PDT 11:55 PM PDT
Length of Visible Light 14h 24m
Length of Day
13h 20m
Tomorrow will be 3m 24s shorter.
Waxing Crescent, 50% of the Moon is Illuminated
Today
Waxing Crescent
Sep 2
First Quarter
Sep 8
Full
Sep 15
Last Quarter
Sep 24
New

Today's Extremes

State Highs State Lows

Community

WunderPhotos

Upload Photos

1,749,611 photos uploaded!

WunderBlogs® & News

Nearby

Air Quality

  Air Quality AQ Index Pollutant
Yesterday Good
OZONE
Yesterday Good
PM10
Current Good
PM2.5
Tuesday Good
PM2.5

Snow Depth

Station Depth Elevation
Sentinel Butte 0 in 4920 ft
Bunchgrass Meadow 0 in 5000 ft
Quartz Peak 2 in 4700 ft
Moses Mountain 1 in 5300 ft
Harts Pass 0 in 6500 ft

Earthquake Activity

City Distance Mag. Time & Date
No recent earthquake activity has been reported nearby.
Minimum magnitude displayed is 2.5.

Coastal Water Temperatures

Place Temperature
No Stations Reporting

Nearby Weather Stations